Time;durP1;ratioP1;P1;durP2;ratioP2;P2;SDS_P1;SDS_P2;PMS_P1;PMS_P2;Temp;Humidity;BMP_temperature;BMP_pressure;BME280_temperature;BME280_humidity;BME280_pressure;Samples;Min_cycle;Max_cycle;Signal;HPM_P1;HPM_P2
2023/08/31 00:02:01;;;;;;;2.15;1.00;;;;;;;21.66;49.68;100780.06;4925073;29;20031;-76
2023/08/31 00:04:26;;;;;;;2.55;1.20;;;;;;;21.67;49.99;100786.22;4925694;29;20071;-74
2023/08/31 00:06:51;;;;;;;2.67;1.10;;;;;;;21.66;49.86;100784.56;4925487;29;20464;-80
2023/08/31 00:09:18;;;;;;;3.42;1.30;;;;;;;21.66;49.61;100788.03;4926127;29;20035;-73
2023/08/31 00:11:44;;;;;;;2.20;1.00;;;;;;;21.64;49.76;100782.06;4925266;29;20039;-80
2023/08/31 00:14:09;;;;;;;2.63;1.05;;;;;;;21.64;49.93;100787.34;4924503;29;20079;-82
2023/08/31 00:16:36;;;;;;;4.90;1.25;;;;;;;21.63;49.49;100783.03;4925162;29;20551;-79
2023/08/31 00:19:02;;;;;;;2.92;1.15;;;;;;;21.63;49.51;100777.72;4924796;29;20114;-79
2023/08/31 00:21:28;;;;;;;3.30;1.10;;;;;;;21.62;49.63;100784.03;4924461;29;20038;-73
2023/08/31 00:23:54;;;;;;;3.45;1.00;;;;;;;21.59;49.81;100778.16;4924907;29;20122;-72
2023/08/31 00:26:19;;;;;;;3.85;1.10;;;;;;;21.62;49.55;100780.53;4939337;28;20075;-78
2023/08/31 00:28:45;;;;;;;3.58;1.40;;;;;;;21.61;49.63;100777.03;4924266;29;20043;-72
2023/08/31 00:31:10;;;;;;;3.55;1.20;;;;;;;21.61;49.52;100776.22;4925087;29;20040;-79
2023/08/31 00:33:38;;;;;;;3.10;1.20;;;;;;;21.61;49.38;100782.34;4924418;29;20044;-76
2023/08/31 00:36:04;;;;;;;2.58;1.20;;;;;;;21.61;49.70;100781.53;4938889;29;20039;-79
2023/08/31 00:38:30;;;;;;;2.42;0.90;;;;;;;21.61;49.38;100785.00;4924800;29;20036;-78
2023/08/31 00:40:56;;;;;;;3.00;1.15;;;;;;;21.59;49.58;100780.81;4923840;29;20047;-77
2023/08/31 00:43:21;;;;;;;2.88;0.93;;;;;;;21.58;49.78;100774.69;4925886;29;20031;-80
2023/08/31 00:45:49;;;;;;;3.05;0.90;;;;;;;21.58;49.45;100779.16;4925400;29;20489;-81
2023/08/31 00:48:19;;;;;;;3.03;1.20;;;;;;;21.58;49.57;100782.63;4939004;29;20114;-77
2023/08/31 00:50:46;;;;;;;2.15;1.05;;;;;;;21.55;49.40;100778.50;4925544;29;20090;-78
2023/08/31 00:53:12;;;;;;;4.70;1.20;;;;;;;21.56;49.53;100769.53;4925392;29;20541;-81
2023/08/31 00:55:39;;;;;;;2.47;1.00;;;;;;;21.56;49.41;100780.13;4925391;29;20035;-77
2023/08/31 00:58:05;;;;;;;2.55;1.10;;;;;;;21.56;49.29;100780.13;4924645;29;20067;-81
2023/08/31 01:00:52;;;;;;;3.08;1.10;;;;;;;21.54;49.18;100773.34;4925072;29;20181;-73
2023/08/31 01:03:37;;;;;;;2.45;1.08;;;;;;;21.51;49.42;100774.44;4923963;29;20083;-83
2023/08/31 01:06:14;;;;;;;2.60;1.02;;;;;;;21.54;49.24;100773.34;4924604;29;20948;-80
2023/08/31 01:08:40;;;;;;;2.75;1.20;;;;;;;21.55;49.08;100773.19;4924148;29;20040;-74
2023/08/31 01:11:31;;;;;;;2.53;1.20;;;;;;;21.52;49.25;100770.84;4925126;29;20243;-79
2023/08/31 01:14:09;;;;;;;2.28;0.90;;;;;;;21.52;49.43;100776.13;4923429;29;20488;-71
2023/08/31 01:16:36;;;;;;;1.85;1.15;;;;;;;21.53;49.33;100769.00;4924245;29;20046;-82
2023/08/31 01:19:10;;;;;;;2.75;1.13;;;;;;;21.49;49.32;100768.47;4924379;29;20481;-73
2023/08/31 01:21:42;;;;;;;2.47;1.07;;;;;;;21.51;49.18;100769.16;4924272;29;20039;-77
2023/08/31 01:24:08;;;;;;;2.58;1.10;;;;;;;21.52;48.96;100764.69;4922711;29;20489;-78
2023/08/31 01:26:34;;;;;;;2.63;1.20;;;;;;;21.51;49.16;100758.53;4924056;29;20046;-73
2023/08/31 01:29:00;;;;;;;2.83;1.10;;;;;;;21.50;48.88;100767.47;4922919;28;20184;-82
2023/08/31 01:31:25;;;;;;;3.03;1.40;;;;;;;21.49;49.20;100772.91;4923234;29;20096;-72
2023/08/31 01:33:51;;;;;;;2.17;1.00;;;;;;;21.48;49.16;100772.09;4923610;28;20036;-80
2023/08/31 01:36:29;;;;;;;2.00;1.00;;;;;;;21.47;49.14;100773.03;4924387;28;20067;-76
2023/08/31 01:39:10;;;;;;;3.13;1.20;;;;;;;21.46;49.09;100781.13;4923267;29;20127;-73
2023/08/31 01:41:40;;;;;;;3.28;1.27;;;;;;;21.48;49.03;100785.34;4924018;29;20588;-73
2023/08/31 01:44:08;;;;;;;2.67;1.17;;;;;;;21.46;49.11;100782.00;4921828;29;20505;-72
2023/08/31 01:46:34;;;;;;;3.45;1.13;;;;;;;21.45;49.05;100782.97;4922910;29;20090;-79
2023/08/31 01:48:59;;;;;;;2.97;1.10;;;;;;;21.45;49.07;100787.44;4923048;29;20520;-74
2023/08/31 01:51:25;;;;;;;1.77;1.00;;;;;;;21.45;49.08;100788.25;4921965;29;20312;-82
2023/08/31 01:53:50;;;;;;;2.78;1.20;;;;;;;21.45;48.99;100788.25;4922914;28;20036;-72
2023/08/31 01:56:16;;;;;;;3.20;1.33;;;;;;;21.45;48.86;100782.13;4923394;29;20040;-80
2023/08/31 01:58:41;;;;;;;3.30;1.38;;;;;;;21.44;49.35;100783.13;4922037;29;20035;-72
2023/08/31 02:01:06;;;;;;;3.60;1.35;;;;;;;21.45;48.95;100787.44;4922805;29;20039;-72
2023/08/31 02:03:31;;;;;;;3.33;1.08;;;;;;;21.44;48.86;100786.59;4922882;29;20051;-83
2023/08/31 02:05:57;;;;;;;4.13;1.45;;;;;;;21.44;48.89;100780.47;4922179;28;20031;-76
2023/08/31 02:08:22;;;;;;;2.72;1.30;;;;;;;21.43;49.15;100787.59;4922678;29;20512;-79
2023/08/31 02:10:48;;;;;;;3.33;1.10;;;;;;;21.41;49.30;100786.06;4921945;29;20094;-77
2023/08/31 02:13:15;;;;;;;2.17;1.10;;;;;;;21.42;48.93;100796.50;4922171;29;20678;-74
2023/08/31 02:15:41;;;;;;;3.03;1.20;;;;;;;21.42;49.22;100793.88;4922689;29;20139;-72
2023/08/31 02:18:08;;;;;;;3.17;1.40;;;;;;;21.41;49.03;100792.19;4923243;29;20378;-79
2023/08/31 02:20:34;;;;;;;2.13;1.10;;;;;;;21.42;48.90;100801.00;4922922;29;20087;-73
2023/08/31 02:23:00;;;;;;;3.28;1.48;;;;;;;21.42;49.11;100793.03;4923060;29;20743;-81
2023/08/31 02:25:27;;;;;;;2.90;1.10;;;;;;;21.42;48.98;100795.69;4923535;29;20059;-73
2023/08/31 02:27:54;;;;;;;2.70;1.17;;;;;;;21.39;48.80;100796.81;4922445;28;20034;-80
2023/08/31 02:30:19;;;;;;;3.28;1.20;;;;;;;21.39;49.33;100794.16;4923275;28;20035;-83
2023/08/31 02:32:44;;;;;;;3.35;1.35;;;;;;;21.40;49.15;100787.06;4922390;29;20039;-73
2023/08/31 02:35:12;;;;;;;2.92;1.20;;;;;;;21.41;48.84;100780.75;4922226;29;20114;-72
2023/08/31 02:37:37;;;;;;;3.13;1.20;;;;;;;21.40;49.21;100785.22;4922147;29;20024;-72
2023/08/31 02:40:04;;;;;;;3.03;1.40;;;;;;;21.39;49.36;100791.50;4921768;29;20032;-74
2023/08/31 02:42:29;;;;;;;2.75;1.15;;;;;;;21.38;49.12;100788.03;4922465;29;20074;-75
2023/08/31 02:44:54;;;;;;;2.53;1.23;;;;;;;21.37;48.99;100790.81;4922623;29;20497;-73
2023/08/31 02:47:20;;;;;;;2.45;1.20;;;;;;;21.38;49.25;100789.84;4921821;29;20028;-74
2023/08/31 02:49:45;;;;;;;5.15;1.52;;;;;;;21.38;49.26;100787.22;4922218;29;20541;-72
2023/08/31 02:52:10;;;;;;;3.00;1.30;;;;;;;21.37;48.97;100789.00;4922246;29;20528;-72
2023/08/31 02:54:38;;;;;;;3.35;1.52;;;;;;;21.36;49.07;100784.69;4921982;29;20040;-71
2023/08/31 02:57:04;;;;;;;4.18;1.70;;;;;;;21.37;49.10;100789.00;4920664;29;20409;-72
2023/08/31 02:59:29;;;;;;;4.53;1.90;;;;;;;21.37;49.00;100788.19;4922674;28;20646;-72
2023/08/31 03:01:54;;;;;;;4.20;2.22;;;;;;;21.37;48.98;100790.81;4922684;29;20043;-79
2023/08/31 03:04:20;;;;;;;5.28;2.15;;;;;;;21.34;49.02;100786.63;4923554;29;20032;-79
2023/08/31 03:06:45;;;;;;;4.70;2.07;;;;;;;21.36;48.84;100792.66;4923678;29;20507;-72
2023/08/31 03:09:10;;;;;;;4.88;2.20;;;;;;;21.37;48.98;100793.47;4922607;29;20286;-73
2023/08/31 03:11:36;;;;;;;4.17;2.10;;;;;;;21.35;49.02;100792.81;4922142;29;20035;-72
2023/08/31 03:14:01;;;;;;;4.00;2.15;;;;;;;21.34;48.72;100789.28;4922389;29;20284;-72
2023/08/31 03:16:26;;;;;;;3.92;2.10;;;;;;;21.34;48.97;100777.88;4922848;28;20028;-72
2023/08/31 03:18:52;;;;;;;3.92;2.13;;;;;;;21.34;48.94;100791.13;4922475;29;20122;-77
2023/08/31 03:21:17;;;;;;;5.40;2.47;;;;;;;21.33;48.72;100798.25;4924257;29;20040;-73
2023/08/31 03:23:42;;;;;;;3.78;2.10;;;;;;;21.33;48.77;100798.25;4924823;29;20545;-83
2023/08/31 03:26:08;;;;;;;3.90;2.10;;;;;;;21.33;48.87;100794.75;4926122;29;20039;-73
2023/08/31 03:28:34;;;;;;;4.18;1.92;;;;;;;21.33;48.81;100800.03;4926436;28;20107;-73
2023/08/31 03:30:59;;;;;;;4.70;2.22;;;;;;;21.32;48.86;100799.22;4925137;29;20477;-78
2023/08/31 03:33:24;;;;;;;3.72;2.30;;;;;;;21.32;49.18;100799.22;4925707;29;20625;-74
2023/08/31 03:35:50;;;;;;;4.75;1.90;;;;;;;21.32;48.93;100801.88;4924920;29;20062;-72
2023/08/31 03:38:15;;;;;;;4.72;2.17;;;;;;;21.32;48.68;100796.56;4925135;28;20417;-72
2023/08/31 03:40:41;;;;;;;5.28;1.95;;;;;;;21.30;48.94;100795.88;4924900;29;20895;-83
2023/08/31 03:43:06;;;;;;;4.13;2.08;;;;;;;21.30;48.70;100792.38;4925526;29;20047;-75
2023/08/31 03:45:31;;;;;;;4.03;2.30;;;;;;;21.30;49.01;100787.09;4925133;29;20501;-86
2023/08/31 03:47:57;;;;;;;3.45;1.90;;;;;;;21.29;48.77;100788.91;4925795;29;20485;-71
2023/08/31 03:50:22;;;;;;;4.10;2.25;;;;;;;21.29;48.77;100778.31;4924498;29;20516;-78
2023/08/31 03:52:47;;;;;;;5.15;3.00;;;;;;;21.28;48.96;100779.28;4925119;29;20043;-73
2023/08/31 03:55:13;;;;;;;5.13;2.35;;;;;;;21.29;48.76;100785.44;4925553;29;20491;-72
2023/08/31 03:57:38;;;;;;;4.47;2.45;;;;;;;21.28;48.86;100781.94;4925571;29;20516;-83
2023/08/31 04:00:10;;;;;;;5.82;3.00;;;;;;;21.27;49.17;100780.28;4925928;29;20039;-74
2023/08/31 04:02:38;;;;;;;5.15;2.90;;;;;;;21.24;48.76;100777.06;4925208;29;20452;-74
2023/08/31 04:05:05;;;;;;;5.38;2.83;;;;;;;21.27;48.83;100788.22;4924781;29;20035;-75
2023/08/31 04:07:35;;;;;;;5.88;3.05;;;;;;;21.27;48.59;100795.31;4925002;29;20027;-79
2023/08/31 04:10:00;;;;;;;4.97;2.97;;;;;;;21.26;48.70;100786.56;4939207;29;20039;-79
2023/08/31 04:12:25;;;;;;;5.05;3.13;;;;;;;21.26;48.71;100794.50;4924566;28;20051;-76
2023/08/31 04:14:51;;;;;;;5.40;3.00;;;;;;;21.26;48.50;100793.69;4924587;29;20130;-73
2023/08/31 04:17:16;;;;;;;5.50;3.17;;;;;;;21.26;48.74;100801.63;4924981;29;20107;-84
2023/08/31 04:19:42;;;;;;;4.82;2.70;;;;;;;21.24;48.50;100804.41;4924510;29;20079;-73
2023/08/31 04:22:08;;;;;;;6.20;3.20;;;;;;;21.25;48.67;100806.06;4925584;29;20063;-72
2023/08/31 04:24:33;;;;;;;4.68;2.60;;;;;;;21.24;48.76;100808.88;4925158;28;20031;-73
2023/08/31 04:26:58;;;;;;;4.15;2.60;;;;;;;21.24;48.99;100804.41;4924154;29;20489;-83
2023/08/31 04:29:24;;;;;;;5.28;2.90;;;;;;;21.23;48.82;100808.03;4925176;29;20027;-72
2023/08/31 04:31:50;;;;;;;4.85;2.70;;;;;;;21.24;48.68;100814.16;4924602;28;20128;-73
2023/08/31 04:34:15;;;;;;;5.35;2.75;;;;;;;21.23;48.34;100818.66;4924057;29;20082;-74
2023/08/31 04:36:41;;;;;;;5.38;2.72;;;;;;;21.23;48.85;100809.88;4929002;29;20039;-72
2023/08/31 04:39:07;;;;;;;5.35;2.80;;;;;;;21.24;48.79;100816.81;4929757;29;20100;-71
2023/08/31 04:41:32;;;;;;;5.45;2.55;;;;;;;21.23;48.68;100815.16;4924362;29;20142;-73
2023/08/31 04:43:58;;;;;;;4.35;2.60;;;;;;;21.23;48.82;100823.13;4938347;29;20911;-72
2023/08/31 04:46:23;;;;;;;4.00;2.38;;;;;;;21.22;48.50;100822.28;4924449;29;20470;-72
2023/08/31 04:48:48;;;;;;;4.43;2.25;;;;;;;21.23;48.76;100825.78;4923429;29;20028;-75
2023/08/31 04:51:33;;;;;;;5.15;2.50;;;;;;;21.21;48.81;100828.56;4924612;29;20490;-73
2023/08/31 04:53:59;;;;;;;4.25;2.15;;;;;;;21.21;48.68;100823.25;4923301;29;20040;-80
2023/08/31 04:56:24;;;;;;;4.65;2.35;;;;;;;21.20;48.48;100827.75;4924619;29;20042;-77
2023/08/31 04:58:50;;;;;;;4.90;2.47;;;;;;;21.21;48.30;100831.22;4924254;29;20059;-82
2023/08/31 05:01:16;;;;;;;3.65;1.90;;;;;;;21.20;48.65;100835.69;4924120;29;20043;-73
2023/08/31 05:03:41;;;;;;;4.80;2.58;;;;;;;21.19;48.97;100835.84;4924293;29;20059;-79
2023/08/31 05:06:07;;;;;;;3.80;2.00;;;;;;;21.19;48.78;100841.97;4924753;29;20401;-77
2023/08/31 05:08:33;;;;;;;3.55;1.92;;;;;;;21.19;48.54;100838.47;4924163;29;20814;-74
2023/08/31 05:10:59;;;;;;;4.25;1.98;;;;;;;21.18;48.63;100834.16;4924353;29;20044;-77
2023/08/31 05:13:24;;;;;;;4.40;2.10;;;;;;;21.19;48.54;100844.59;4925001;29;20842;-74
2023/08/31 05:15:49;;;;;;;4.00;1.90;;;;;;;21.18;48.52;100848.22;4923478;29;20048;-73
2023/08/31 05:18:15;;;;;;;4.32;1.98;;;;;;;21.18;48.54;100853.53;4924717;29;20126;-72
2023/08/31 05:20:45;;;;;;;3.92;2.10;;;;;;;21.17;48.59;100853.66;4923930;29;20036;-74
2023/08/31 05:23:10;;;;;;;5.47;2.33;;;;;;;21.19;48.59;100859.69;4922463;29;20047;-76
2023/08/31 05:25:35;;;;;;;4.55;1.95;;;;;;;21.18;48.64;100860.66;4924953;29;20039;-80
2023/08/31 05:28:01;;;;;;;4.38;1.80;;;;;;;21.17;48.67;100864.28;4924412;29;20738;-80
2023/08/31 05:30:26;;;;;;;4.40;2.10;;;;;;;21.17;48.75;100866.91;4923761;29;20135;-81
2023/08/31 05:32:52;;;;;;;3.85;1.80;;;;;;;21.17;48.82;100870.44;4923635;29;20425;-76
2023/08/31 05:35:17;;;;;;;3.83;1.88;;;;;;;21.16;48.66;100874.03;4923470;29;20185;-75
2023/08/31 05:37:42;;;;;;;3.70;1.70;;;;;;;21.16;48.59;100873.22;4922889;29;20421;-72
2023/08/31 05:40:10;;;;;;;3.92;1.80;;;;;;;21.16;48.50;100875.88;4922551;29;20035;-73
2023/08/31 05:42:36;;;;;;;4.38;1.80;;;;;;;21.14;48.87;100876.00;4923480;29;20038;-83
2023/08/31 05:45:02;;;;;;;3.95;1.77;;;;;;;21.15;48.86;100885.63;4922790;29;20032;-72
2023/08/31 05:47:27;;;;;;;3.63;1.65;;;;;;;21.16;48.74;100891.78;4923834;29;20036;-75
2023/08/31 05:49:53;;;;;;;4.28;1.70;;;;;;;21.14;48.78;100888.41;4922904;29;20036;-76
2023/08/31 05:52:18;;;;;;;3.53;1.70;;;;;;;21.15;48.87;100884.78;4924054;29;20043;-72
2023/08/31 05:54:43;;;;;;;3.25;1.65;;;;;;;21.15;48.75;100884.78;4923474;29;20266;-75
2023/08/31 05:57:08;;;;;;;3.50;1.67;;;;;;;21.14;48.50;100880.47;4923061;29;20028;-80
2023/08/31 05:59:34;;;;;;;4.13;1.63;;;;;;;21.13;48.94;100884.94;4922994;29;20576;-79
2023/08/31 06:01:59;;;;;;;3.17;1.45;;;;;;;21.14;48.86;100893.72;4922581;29;20428;-76
2023/08/31 06:04:24;;;;;;;4.63;1.90;;;;;;;21.12;48.94;100888.56;4922190;29;20031;-72
2023/08/31 06:06:53;;;;;;;3.65;1.63;;;;;;;21.15;48.83;100890.09;4922955;29;20039;-77
2023/08/31 06:09:20;;;;;;;3.50;1.63;;;;;;;21.14;48.59;100891.06;4922957;29;20043;-78
2023/08/31 06:11:45;;;;;;;4.28;1.48;;;;;;;21.13;49.09;100892.88;4922268;29;20091;-75
2023/08/31 06:14:10;;;;;;;3.42;1.35;;;;;;;21.12;48.89;100888.56;4922826;29;20028;-85
2023/08/31 06:16:38;;;;;;;3.47;1.30;;;;;;;21.13;49.13;100894.72;4923007;29;20107;-72
2023/08/31 06:19:04;;;;;;;4.75;1.63;;;;;;;21.13;48.98;100892.88;4921584;29;20157;-82
2023/08/31 06:21:29;;;;;;;4.28;1.80;;;;;;;21.13;48.91;100900.84;4922698;28;20091;-74
2023/08/31 06:23:54;;;;;;;4.65;1.88;;;;;;;21.12;48.82;100901.78;4921919;29;20035;-81
2023/08/31 06:26:20;;;;;;;3.58;1.63;;;;;;;21.12;49.36;100903.63;4922100;29;20039;-74
2023/08/31 06:28:45;;;;;;;3.45;1.50;;;;;;;21.12;49.23;100906.28;4922179;29;20040;-72
2023/08/31 06:31:10;;;;;;;3.60;1.50;;;;;;;21.12;49.25;100908.91;4921702;29;20036;-72
2023/08/31 06:33:35;;;;;;;2.97;1.27;;;;;;;21.12;49.27;100916.88;4921796;29;20281;-72
2023/08/31 06:36:01;;;;;;;4.20;1.50;;;;;;;21.12;49.01;100911.56;4922399;29;20028;-78
2023/08/31 06:38:26;;;;;;;4.93;1.65;;;;;;;21.13;49.23;100918.56;4922637;29;20050;-71
2023/08/31 06:40:58;;;;;;;3.28;1.45;;;;;;;21.18;49.64;100914.47;4921589;29;20032;-76
2023/08/31 06:43:26;;;;;;;7.25;1.73;;;;;;;21.23;49.53;100913.22;4922447;29;20478;-75
2023/08/31 06:45:52;;;;;;;4.25;1.40;;;;;;;21.24;49.43;100917.53;4922593;29;20039;-74
2023/08/31 06:48:18;;;;;;;3.63;1.55;;;;;;;21.26;49.32;100920.91;4921855;29;20382;-78
2023/08/31 06:50:43;;;;;;;5.13;1.70;;;;;;;21.24;49.75;100929.00;4922246;29;20043;-80
2023/08/31 06:53:08;;;;;;;5.70;1.50;;;;;;;21.22;49.90;100930.94;4922156;28;20181;-79
2023/08/31 06:55:33;;;;;;;3.40;1.50;;;;;;;21.24;49.92;100930.78;4921629;29;20475;-72
2023/08/31 06:57:59;;;;;;;8.93;1.70;;;;;;;21.26;50.34;100928.84;4921305;29;20579;-78
2023/08/31 07:00:25;;;;;;;12.35;1.58;;;;;;;21.26;50.07;100928.84;4918195;29;20043;-75
2023/08/31 07:02:50;;;;;;;5.78;1.50;;;;;;;21.20;50.56;100938.19;4934108;29;20054;-79
2023/08/31 07:05:16;;;;;;;4.18;1.50;;;;;;;21.15;50.38;100932.50;4922951;28;20050;-71
2023/08/31 07:07:41;;;;;;;3.65;1.30;;;;;;;21.12;51.03;100938.91;4920952;29;20039;-71
2023/08/31 07:10:07;;;;;;;3.25;1.40;;;;;;;21.13;50.85;100939.75;4922016;29;20039;-71
2023/08/31 07:12:32;;;;;;;3.85;1.50;;;;;;;21.16;50.78;100940.31;4922321;29;20468;-75
2023/08/31 07:14:58;;;;;;;3.65;1.30;;;;;;;21.25;50.41;100940.41;4920189;29;20044;-75
2023/08/31 07:17:23;;;;;;;3.35;1.48;;;;;;;21.32;50.38;100944.19;4921478;29;20468;-76
2023/08/31 07:19:48;;;;;;;3.38;1.63;;;;;;;21.37;50.45;100941.94;4921843;29;20036;-76
2023/08/31 07:22:14;;;;;;;4.88;1.60;;;;;;;21.37;50.62;100945.41;4920644;29;20490;-73
2023/08/31 07:24:39;;;;;;;4.40;1.70;;;;;;;21.38;50.46;100944.44;4922027;29;20193;-74
2023/08/31 07:27:05;;;;;;;6.40;1.80;;;;;;;21.39;50.43;100953.22;4922281;29;20028;-73
2023/08/31 07:29:31;;;;;;;4.18;1.40;;;;;;;21.41;50.89;100958.38;4921804;29;20098;-71
2023/08/31 07:31:57;;;;;;;4.03;1.50;;;;;;;21.42;50.95;100949.44;4922003;29;20047;-77
2023/08/31 07:34:23;;;;;;;4.40;1.85;;;;;;;21.44;50.91;100950.13;4922532;29;21114;-78
2023/08/31 07:36:49;;;;;;;3.75;1.48;;;;;;;21.45;50.80;100944.69;4921661;29;20038;-75
2023/08/31 07:39:15;;;;;;;4.45;1.40;;;;;;;21.47;51.05;100952.50;4920927;29;20039;-75
2023/08/31 07:41:41;;;;;;;6.13;1.70;;;;;;;21.47;50.61;100949.84;4922366;29;20515;-74
2023/08/31 07:44:06;;;;;;;6.25;1.90;;;;;;;21.47;50.92;100955.97;4921895;29;20492;-76
2023/08/31 07:46:31;;;;;;;7.10;1.52;;;;;;;21.46;50.95;100951.69;4921835;29;20038;-73
2023/08/31 07:48:57;;;;;;;3.95;1.65;;;;;;;21.47;51.25;100955.97;4922247;29;20036;-73
2023/08/31 07:51:23;;;;;;;3.42;1.40;;;;;;;21.49;51.50;100956.72;4919395;29;20050;-77
2023/08/31 07:53:51;;;;;;;4.00;1.48;;;;;;;21.48;51.56;100954.19;4922574;29;20083;-73
2023/08/31 07:56:16;;;;;;;5.40;1.52;;;;;;;21.51;51.77;100956.59;4922186;29;20042;-73
2023/08/31 07:58:42;;;;;;;4.65;1.60;;;;;;;21.53;51.44;100954.59;4921421;29;20040;-73
2023/08/31 08:01:07;;;;;;;4.72;1.63;;;;;;;21.54;51.35;100957.13;4922352;29;20175;-73
2023/08/31 08:03:32;;;;;;;3.75;1.38;;;;;;;21.54;51.70;100964.25;4921533;29;20094;-75
2023/08/31 08:05:58;;;;;;;4.50;1.70;;;;;;;21.53;51.83;100958.09;4920933;29;20040;-74
2023/08/31 08:08:23;;;;;;;3.13;1.30;;;;;;;21.53;52.09;100966.03;4923973;29;20293;-74
2023/08/31 08:10:53;;;;;;;5.72;1.30;;;;;;;21.50;51.81;100966.34;4924541;29;20071;-78
2023/08/31 08:13:18;;;;;;;5.40;1.52;;;;;;;21.54;52.11;100966.91;4925702;29;20027;-74
2023/08/31 08:15:45;;;;;;;7.85;1.52;;;;;;;21.54;51.89;100967.72;4924624;29;20505;-75
2023/08/31 08:18:10;;;;;;;5.40;1.80;;;;;;;21.54;51.91;100967.72;4925130;29;20061;-76
2023/08/31 08:20:36;;;;;;;6.07;2.08;;;;;;;21.51;52.25;100969.84;4925013;29;20474;-70
2023/08/31 08:23:01;;;;;;;5.40;1.50;;;;;;;21.52;52.19;100977.66;4939493;28;20095;-80
2023/08/31 08:25:27;;;;;;;4.70;1.67;;;;;;;21.51;52.44;100983.09;4924389;29;20564;-74
2023/08/31 08:27:52;;;;;;;7.10;1.60;;;;;;;21.53;52.08;100979.31;4925143;28;20039;-74
2023/08/31 08:30:18;;;;;;;5.38;1.80;;;;;;;21.55;52.21;100979.16;4923704;29;20047;-76
2023/08/31 08:32:44;;;;;;;3.92;1.30;;;;;;;21.53;52.17;100975.81;4924198;29;20046;-72
2023/08/31 08:35:09;;;;;;;10.50;1.58;;;;;;;21.52;52.52;100977.66;4925096;29;20206;-75
2023/08/31 08:37:34;;;;;;;6.45;1.40;;;;;;;21.51;52.29;100973.31;4925196;29;20461;-81
2023/08/31 08:40:00;;;;;;;3.10;1.30;;;;;;;21.54;52.45;100982.81;4924401;29;20464;-78
2023/08/31 08:42:26;;;;;;;3.97;1.55;;;;;;;21.56;52.44;100984.31;4924878;29;20032;-75
2023/08/31 08:44:52;;;;;;;6.35;1.67;;;;;;;21.54;52.24;100988.94;4922461;29;20034;-72
2023/08/31 08:47:17;;;;;;;10.80;1.70;;;;;;;21.56;52.55;100980.84;4924068;29;20555;-72
2023/08/31 08:49:44;;;;;;;5.05;1.60;;;;;;;21.58;52.26;100989.47;4924565;29;20024;-76
2023/08/31 08:52:10;;;;;;;6.70;1.50;;;;;;;21.58;52.53;100989.47;4924689;29;20038;-71
2023/08/31 08:54:35;;;;;;;5.63;1.60;;;;;;;21.60;52.13;100998.13;4923954;29;20035;-72
2023/08/31 08:57:01;;;;;;;5.35;1.70;;;;;;;21.63;52.44;100999.66;4924152;29;20122;-79
2023/08/31 08:59:27;;;;;;;5.70;1.55;;;;;;;21.65;52.44;101003.00;4924647;29;20035;-77
2023/08/31 09:01:55;;;;;;;8.10;2.00;;;;;;;21.61;52.45;101010.41;4924067;29;20035;-80
2023/08/31 09:04:20;;;;;;;4.43;1.30;;;;;;;21.61;52.14;101005.09;4939085;29;20210;-75
2023/08/31 09:06:45;;;;;;;9.38;1.58;;;;;;;21.61;52.54;100999.81;4924118;29;20732;-76
2023/08/31 09:09:11;;;;;;;7.15;1.52;;;;;;;21.63;52.33;101007.63;4924753;29;20405;-76
2023/08/31 09:11:36;;;;;;;4.25;1.58;;;;;;;21.64;52.57;101007.47;4924965;29;20035;-80
2023/08/31 09:14:17;;;;;;;5.55;1.60;;;;;;;21.63;52.69;101008.44;4924306;29;20489;-72
2023/08/31 09:16:47;;;;;;;7.63;1.77;;;;;;;21.66;52.36;101002.84;4924975;29;20032;-75
2023/08/31 09:19:39;;;;;;;5.63;1.92;;;;;;;21.66;52.50;101005.50;4924736;29;20040;-75
2023/08/31 09:22:04;;;;;;;5.10;1.30;;;;;;;21.67;52.43;101007.19;4923122;29;20039;-75
2023/08/31 09:24:40;;;;;;;4.97;1.40;;;;;;;21.65;52.77;101003.84;4924929;29;20397;-75
2023/08/31 09:27:06;;;;;;;8.32;1.77;;;;;;;21.69;52.23;101009.69;4923649;29;20039;-73
2023/08/31 09:29:31;;;;;;;4.28;1.40;;;;;;;21.68;52.28;101002.72;4924326;29;20119;-73
2023/08/31 09:31:57;;;;;;;6.65;1.70;;;;;;;21.69;52.21;101004.38;4924785;29;20468;-72
2023/08/31 09:34:32;;;;;;;5.38;1.70;;;;;;;21.64;52.55;101010.13;4924796;29;20042;-76
2023/08/31 09:37:36;;;;;;;6.68;1.83;;;;;;;21.68;52.57;101010.66;4938991;29;20039;-76
2023/08/31 09:40:03;;;;;;;3.97;1.60;;;;;;;21.70;52.46;101017.50;4939685;28;20462;-69
2023/08/31 09:42:38;;;;;;;6.47;1.83;;;;;;;21.67;52.49;101006.38;4923205;29;20027;-76
2023/08/31 09:45:04;;;;;;;5.10;1.70;;;;;;;21.70;52.67;101006.06;4923899;29;20389;-69
2023/08/31 09:47:30;;;;;;;7.72;1.70;;;;;;;21.71;52.74;101013.03;4923728;29;20042;-75
2023/08/31 09:49:56;;;;;;;4.18;1.67;;;;;;;21.70;52.67;101006.91;4922780;29;20528;-78
2023/08/31 09:52:23;;;;;;;3.80;1.45;;;;;;;21.72;52.78;101006.75;4923544;29;20055;-75
2023/08/31 09:54:51;;;;;;;5.03;1.58;;;;;;;21.72;52.31;101007.59;4923009;29;20039;-83
2023/08/31 09:57:17;;;;;;;4.32;1.40;;;;;;;21.72;52.81;101010.25;4925289;29;20117;-83
2023/08/31 09:59:43;;;;;;;4.43;1.40;;;;;;;21.71;52.37;101018.34;4922566;29;20043;-74
2023/08/31 10:02:12;;;;;;;5.13;1.92;;;;;;;21.72;52.45;101017.38;4922821;29;20194;-71
2023/08/31 10:04:38;;;;;;;6.47;1.60;;;;;;;21.72;52.48;101009.41;4922357;29;20465;-79
2023/08/31 10:07:05;;;;;;;4.05;1.40;;;;;;;21.73;52.59;101019.88;4923931;29;20117;-77
2023/08/31 10:09:31;;;;;;;3.78;1.40;;;;;;;21.74;52.80;101013.56;4924003;29;20417;-77
2023/08/31 10:11:57;;;;;;;6.63;1.50;;;;;;;21.76;52.47;101013.44;4923935;29;20078;-74
2023/08/31 10:14:26;;;;;;;4.40;1.40;;;;;;;21.77;52.61;101020.41;4924274;29;20158;-78
2023/08/31 10:16:55;;;;;;;5.53;1.77;;;;;;;21.78;52.30;101014.13;4924382;29;20169;-75
2023/08/31 10:19:21;;;;;;;4.68;1.52;;;;;;;21.81;52.45;101020.94;4922851;29;20031;-73
2023/08/31 10:21:46;;;;;;;5.25;1.50;;;;;;;21.77;52.78;101012.47;4922428;29;20066;-73
2023/08/31 10:24:12;;;;;;;5.18;1.75;;;;;;;21.71;52.75;101015.69;4922367;29;20466;-73
2023/08/31 10:26:37;;;;;;;4.97;1.60;;;;;;;21.65;52.90;101005.66;4922346;28;20628;-76
2023/08/31 10:29:04;;;;;;;6.90;1.50;;;;;;;21.59;53.22;101017.69;4922323;29;20491;-74
2023/08/31 10:31:32;;;;;;;5.47;1.83;;;;;;;21.59;53.06;101006.22;4920955;28;20036;-75
2023/08/31 10:34:09;;;;;;;16.70;11.43;;;;;;;21.62;53.04;101006.78;4936778;29;20497;-76
2023/08/31 10:36:45;;;;;;;20.92;14.00;;;;;;;21.62;53.05;101004.13;4923056;28;20039;-75
2023/08/31 10:39:15;;;;;;;27.30;18.83;;;;;;;21.63;53.05;101012.91;4921483;29;20508;-76
2023/08/31 10:41:41;;;;;;;30.38;21.98;;;;;;;21.65;53.03;101005.66;4921675;29;20035;-74
2023/08/31 10:44:22;;;;;;;33.08;23.38;;;;;;;21.67;53.03;101001.06;4921864;29;20131;-72
2023/08/31 10:46:49;;;;;;;37.00;25.75;;;;;;;21.68;52.67;100994.75;4919044;29;20048;-77
2023/08/31 10:49:15;;;;;;;35.58;26.73;;;;;;;21.66;52.77;100994.06;4905345;29;20456;-76
2023/08/31 10:52:19;;;;;;;37.75;25.13;;;;;;;21.62;52.98;100980.28;4921838;29;20048;-74
2023/08/31 10:54:46;;;;;;;30.85;23.73;;;;;;;21.61;53.10;100983.06;4921804;29;20548;-73
2023/08/31 10:57:13;;;;;;;30.33;22.85;;;;;;;21.61;53.11;100981.25;4937038;29;20039;-71
2023/08/31 10:59:52;;;;;;;31.15;22.10;;;;;;;21.58;53.45;100980.69;4921720;29;20047;-74
2023/08/31 11:02:33;;;;;;;27.00;20.58;;;;;;;21.56;53.41;100984.31;4920620;29;20477;-77
2023/08/31 11:05:16;;;;;;;26.88;20.10;;;;;;;21.56;53.54;100973.72;4922016;29;20052;-73
2023/08/31 11:07:49;;;;;;;26.88;19.75;;;;;;;21.55;53.24;100982.66;4921052;29;20035;-74
2023/08/31 11:10:23;;;;;;;27.80;18.70;;;;;;;21.54;53.46;100983.63;4922082;29;20410;-70
2023/08/31 11:12:52;;;;;;;25.88;18.27;;;;;;;21.57;53.08;100987.84;4922029;29;20778;-70
2023/08/31 11:15:19;;;;;;;23.98;17.00;;;;;;;21.58;53.14;100986.00;4935304;29;20452;-71
2023/08/31 11:17:46;;;;;;;23.98;16.40;;;;;;;21.59;53.29;100985.84;4921908;29;20039;-81
2023/08/31 11:20:16;;;;;;;24.60;16.20;;;;;;;21.57;53.33;100987.84;4922110;28;20051;-70
2023/08/31 11:22:44;;;;;;;23.55;15.45;;;;;;;21.58;53.41;100986.84;4921434;29;20050;-73
2023/08/31 11:25:12;;;;;;;19.67;14.23;;;;;;;21.59;53.44;100987.66;4921589;29;20032;-71